Time;durP1;ratioP1;P1;durP2;ratioP2;P2;SDS_P1;SDS_P2;PMS_P1;PMS_P2;Temp;Humidity;BMP_temperature;BMP_pressure;BME280_temperature;BME280_humidity;BME280_pressure;Samples;Min_cycle;Max_cycle;Signal;HPM_P1;HPM_P2
2022/01/22 00:01:58;;;;;;;7.57;6.03;;;;;;;2.34;100.00;99642.63;5071049;28;20211;-67
2022/01/22 00:04:25;;;;;;;8.67;6.37;;;;;;;2.28;100.00;99639.25;5061352;28;20214;-67
2022/01/22 00:06:54;;;;;;;10.47;6.37;;;;;;;2.31;100.00;99644.41;5073502;28;20218;-67
2022/01/22 00:09:25;;;;;;;10.33;6.80;;;;;;;2.39;100.00;99637.38;5072585;28;20219;-67
2022/01/22 00:11:53;;;;;;;9.27;6.53;;;;;;;2.42;100.00;99638.19;5073203;28;20294;-67
2022/01/22 00:14:26;;;;;;;10.77;6.50;;;;;;;2.46;100.00;99632.03;5072789;28;20699;-67
2022/01/22 00:16:56;;;;;;;8.30;6.23;;;;;;;2.50;100.00;99635.47;5072574;28;20230;-67
2022/01/22 00:19:23;;;;;;;9.90;6.20;;;;;;;2.49;100.00;99629.38;5073014;28;20239;-67
2022/01/22 00:21:50;;;;;;;9.97;6.20;;;;;;;2.50;100.00;99623.28;5072901;28;20562;-67
2022/01/22 00:24:17;;;;;;;10.33;6.43;;;;;;;2.48;100.00;99626.78;5073066;28;20252;-67
2022/01/22 00:26:45;;;;;;;8.47;6.70;;;;;;;2.48;100.00;99618.97;5073015;28;20218;-67
2022/01/22 00:29:13;;;;;;;11.63;7.53;;;;;;;2.52;100.00;99628.50;5073085;28;20234;-67
2022/01/22 00:31:41;;;;;;;10.53;6.80;;;;;;;2.54;100.00;99631.94;5072970;28;20329;-67
2022/01/22 00:34:09;;;;;;;8.23;6.33;;;;;;;2.54;100.00;99632.81;5073077;28;20219;-67
2022/01/22 00:36:37;;;;;;;9.27;6.83;;;;;;;2.56;100.00;99636.25;5072700;28;20212;-67
2022/01/22 00:39:04;;;;;;;9.17;7.07;;;;;;;2.60;100.00;99632.72;5072866;28;20246;-67
2022/01/22 00:41:31;;;;;;;9.87;6.93;;;;;;;2.59;100.00;99631.00;5071203;28;20284;-67
2022/01/22 00:43:57;;;;;;;10.17;6.87;;;;;;;2.71;100.00;99636.06;5072714;28;20219;-67
2022/01/22 00:46:23;;;;;;;11.03;7.00;;;;;;;2.76;100.00;99635.97;5066086;28;20669;-67
2022/01/22 00:48:50;;;;;;;10.70;7.13;;;;;;;2.76;100.00;99639.44;5072554;28;20682;-68
2022/01/22 00:51:18;;;;;;;8.10;6.03;;;;;;;2.83;100.00;99633.25;5072911;28;20222;-67
2022/01/22 00:53:44;;;;;;;9.77;7.00;;;;;;;2.82;100.00;99639.34;5073064;28;20222;-67
2022/01/22 00:56:13;;;;;;;7.40;6.20;;;;;;;2.91;100.00;99635.72;5072717;28;20580;-67
2022/01/22 00:58:40;;;;;;;9.00;6.37;;;;;;;2.91;100.00;99620.94;5072711;28;20215;-67
2022/01/22 01:01:06;;;;;;;9.07;6.37;;;;;;;2.96;100.00;99631.31;5072806;28;20215;-67
2022/01/22 01:03:34;;;;;;;9.40;6.80;;;;;;;2.96;100.00;99621.75;5072802;28;20212;-67
2022/01/22 01:06:01;;;;;;;11.03;7.47;;;;;;;2.95;100.00;99621.75;5072660;28;20290;-66
2022/01/22 01:08:31;;;;;;;11.87;7.57;;;;;;;2.96;100.00;99613.03;5070738;28;20215;-67
2022/01/22 01:10:58;;;;;;;10.63;7.40;;;;;;;2.96;100.00;99621.75;5072383;28;20754;-66
2022/01/22 01:13:26;;;;;;;11.27;7.30;;;;;;;2.92;100.00;99622.66;5072502;28;20219;-67
2022/01/22 01:16:00;;;;;;;11.90;7.10;;;;;;;2.95;100.00;99626.97;5072675;28;20304;-66
2022/01/22 01:32:16;;;;;;;13.03;8.30;;;;;;;2.90;100.00;99629.66;5076090;28;20250;-66
2022/01/22 01:34:44;;;;;;;12.93;8.03;;;;;;;2.94;100.00;99631.31;5074231;28;20219;-67
2022/01/22 01:37:14;;;;;;;12.77;8.67;;;;;;;2.97;100.00;99622.59;5075952;28;20230;-67
2022/01/22 01:39:44;;;;;;;14.23;8.30;;;;;;;2.97;100.00;99631.28;5076110;28;20239;-67
2022/01/22 01:42:14;;;;;;;12.87;9.17;;;;;;;2.99;100.00;99628.66;5075962;28;20302;-67
2022/01/22 01:44:41;;;;;;;11.83;8.23;;;;;;;3.03;100.00;99632.94;5076006;28;20712;-66
2022/01/22 01:47:10;;;;;;;16.20;8.83;;;;;;;3.01;100.00;99635.56;5076008;28;20221;-67
2022/01/22 01:49:37;;;;;;;12.27;8.13;;;;;;;3.08;100.00;99637.22;5075982;28;20207;-67
2022/01/22 01:52:07;;;;;;;13.67;9.00;;;;;;;3.03;100.00;99639.03;5075807;28;20211;-67
2022/01/22 01:54:44;;;;;;;13.03;8.87;;;;;;;3.05;100.00;99642.47;5063821;28;20239;-67
2022/01/22 01:57:38;;;;;;;14.80;9.00;;;;;;;3.00;100.00;99643.44;5075490;28;20688;-67
2022/01/22 02:00:07;;;;;;;12.43;8.50;;;;;;;2.94;100.00;99648.75;5061188;28;20239;-66
2022/01/22 02:02:35;;;;;;;13.77;9.40;;;;;;;2.96;100.00;99647.84;5062360;28;20678;-66
2022/01/22 02:05:01;;;;;;;14.20;8.90;;;;;;;2.94;100.00;99644.38;5061811;28;20222;-66
2022/01/22 02:07:28;;;;;;;11.90;7.93;;;;;;;3.02;100.00;99642.53;5062498;28;20212;-67
2022/01/22 02:09:54;;;;;;;11.60;8.63;;;;;;;2.96;100.00;99652.19;5065074;28;20217;-67
2022/01/22 02:12:42;;;;;;;14.50;9.10;;;;;;;3.01;100.00;99646.00;5068740;28;20310;-67
2022/01/22 02:23:34;;;;;;;11.83;8.20;;;;;;;2.94;100.00;99639.16;5075284;28;20246;-67
2022/01/22 02:26:01;;;;;;;12.93;8.60;;;;;;;3.00;100.00;99641.69;5061524;28;20633;-66
2022/01/22 02:28:28;;;;;;;19.67;9.10;;;;;;;2.94;100.00;99631.31;5075358;28;20215;-67
2022/01/22 02:31:00;;;;;;;15.17;8.57;;;;;;;2.90;100.00;99627.06;5074299;28;20219;-67
2022/01/22 02:33:33;;;;;;;13.23;8.37;;;;;;;2.89;100.00;99622.69;5072885;28;20645;-67
2022/01/22 02:36:05;;;;;;;16.87;9.23;;;;;;;2.92;100.00;99625.28;5074910;28;20302;-66
2022/01/22 02:38:39;;;;;;;12.93;9.07;;;;;;;2.85;100.00;99626.25;5075167;28;20215;-67
2022/01/22 02:41:12;;;;;;;16.97;9.20;;;;;;;2.90;100.00;99632.28;5074918;28;20239;-66
2022/01/22 02:43:39;;;;;;;15.30;10.03;;;;;;;2.86;100.00;99625.38;5074279;28;20211;-67
2022/01/22 02:46:05;;;;;;;15.17;9.70;;;;;;;2.88;100.00;99626.19;5074706;28;20222;-67
2022/01/22 02:48:32;;;;;;;12.17;8.80;;;;;;;2.97;100.00;99633.91;5074572;28;20219;-66
2022/01/22 02:50:58;;;;;;;13.00;9.33;;;;;;;2.94;100.00;99633.94;5074394;28;20226;-66
2022/01/22 02:53:25;;;;;;;15.70;10.10;;;;;;;2.91;100.00;99634.00;5072821;28;20218;-67
2022/01/22 02:55:53;;;;;;;16.93;10.43;;;;;;;2.80;100.00;99628.06;5074550;28;20654;-67
2022/01/22 02:58:20;;;;;;;16.03;10.67;;;;;;;2.86;100.00;99627.97;5074767;28;20243;-66
2022/01/22 03:00:46;;;;;;;14.53;10.30;;;;;;;2.85;100.00;99618.44;5074589;28;20235;-67
2022/01/22 03:03:14;;;;;;;14.83;9.87;;;;;;;2.88;100.00;99613.13;5074639;28;20223;-66
2022/01/22 03:05:40;;;;;;;16.83;9.60;;;;;;;2.86;100.00;99614.91;5074658;28;20562;-66
2022/01/22 03:08:09;;;;;;;15.43;10.43;;;;;;;2.87;100.00;99610.56;5074535;28;20238;-66
2022/01/22 03:10:37;;;;;;;16.20;10.40;;;;;;;2.90;100.00;99616.59;5074487;28;20223;-65
2022/01/22 03:13:23;;;;;;;16.43;10.93;;;;;;;2.90;100.00;99616.59;5072666;28;20215;-66
2022/01/22 03:15:57;;;;;;;16.17;10.30;;;;;;;2.91;100.00;99607.88;5074359;28;20214;-66
2022/01/22 03:18:37;;;;;;;16.43;10.17;;;;;;;2.95;100.00;99616.53;5072693;28;20272;-66
2022/01/22 03:21:12;;;;;;;16.03;10.90;;;;;;;2.93;100.00;99620.94;5073988;28;20246;-66
2022/01/22 03:29:11;;;;;;;15.07;10.87;;;;;;;2.93;100.00;99627.00;5063064;28;20219;-66
2022/01/22 03:31:38;;;;;;;17.13;10.70;;;;;;;2.96;100.00;99621.75;5074156;28;20219;-65
2022/01/22 03:34:05;;;;;;;17.53;11.10;;;;;;;2.90;100.00;99621.84;5074042;28;20653;-66
2022/01/22 03:36:33;;;;;;;15.77;10.57;;;;;;;2.85;100.00;99615.81;5073641;28;20220;-67
2022/01/22 03:39:00;;;;;;;17.07;10.53;;;;;;;2.90;100.00;99606.16;5073932;28;20216;-66
2022/01/22 03:41:27;;;;;;;16.73;10.73;;;;;;;2.92;100.00;99604.38;5073647;28;20254;-65
2022/01/22 03:43:54;;;;;;;18.03;11.13;;;;;;;2.90;100.00;99603.56;5072636;28;20216;-69
2022/01/22 03:46:22;;;;;;;19.93;10.87;;;;;;;2.89;100.00;99612.25;5072177;28;20586;-66
2022/01/22 03:48:49;;;;;;;16.50;10.87;;;;;;;2.84;100.00;99603.66;5073426;28;20211;-66
2022/01/22 03:51:15;;;;;;;16.57;10.90;;;;;;;2.85;100.00;99594.94;5073435;28;20707;-66
2022/01/22 03:53:42;;;;;;;15.30;10.33;;;;;;;2.88;100.00;99596.63;5073653;28;20215;-66
2022/01/22 03:56:10;;;;;;;16.57;9.93;;;;;;;2.90;100.00;99595.72;5073601;28;20208;-66
2022/01/22 03:58:38;;;;;;;13.80;10.53;;;;;;;2.92;100.00;99583.50;5073325;28;20238;-66
2022/01/22 04:01:32;;;;;;;12.07;9.27;;;;;;;2.93;100.00;99590.44;5073036;28;20719;-66
2022/01/22 04:04:02;;;;;;;16.57;9.47;;;;;;;2.94;100.00;99594.75;5071706;28;20216;-66
2022/01/22 04:09:13;;;;;;;19.00;10.67;;;;;;;2.98;100.00;99590.34;5050264;28;20245;-66
2022/01/22 04:11:42;;;;;;;16.43;9.47;;;;;;;2.94;100.00;99601.75;5071275;28;20211;-66
2022/01/22 04:14:16;;;;;;;16.87;10.03;;;;;;;2.94;100.00;99597.38;5073268;28;20227;-66
2022/01/22 04:16:56;;;;;;;15.60;10.10;;;;;;;2.96;100.00;99595.63;5073379;28;20229;-66
2022/01/22 04:24:54;;;;;;;14.93;10.17;;;;;;;3.04;100.00;99583.28;5073124;28;20250;-66
2022/01/22 04:27:23;;;;;;;14.57;10.20;;;;;;;3.04;100.00;99582.41;5072720;28;20735;-66
2022/01/22 04:29:50;;;;;;;14.27;9.73;;;;;;;3.06;100.00;99585.88;5071655;28;20272;-66
2022/01/22 04:32:17;;;;;;;17.13;10.77;;;;;;;3.08;100.00;99590.19;5073048;28;20215;-66
2022/01/22 04:34:45;;;;;;;14.47;9.77;;;;;;;3.08;100.00;99595.44;5073095;28;20219;-66
2022/01/22 04:37:11;;;;;;;17.70;10.77;;;;;;;2.97;100.00;99592.13;5071287;28;20222;-66
2022/01/22 04:39:38;;;;;;;17.07;10.07;;;;;;;2.97;100.00;99592.13;5072608;28;20238;-66
2022/01/22 04:42:05;;;;;;;16.17;10.63;;;;;;;3.04;100.00;99583.28;5072663;28;20685;-66
2022/01/22 04:44:37;;;;;;;15.80;10.03;;;;;;;3.07;100.00;99591.06;5072944;28;20215;-66
2022/01/22 04:47:16;;;;;;;14.67;9.73;;;;;;;3.05;100.00;99600.69;5072818;28;20216;-66
2022/01/22 04:52:37;;;;;;;18.00;10.90;;;;;;;3.02;100.00;99603.38;5072820;28;20215;-66
2022/01/22 04:55:04;;;;;;;19.27;10.80;;;;;;;3.08;100.00;99605.88;5073109;28;20318;-66
2022/01/22 04:57:32;;;;;;;15.00;10.23;;;;;;;3.12;100.00;99612.75;5076803;28;20694;-66
2022/01/22 04:59:59;;;;;;;15.77;10.97;;;;;;;3.19;100.00;99610.91;5076844;28;20242;-67
2022/01/22 05:02:25;;;;;;;15.30;10.77;;;;;;;3.18;100.00;99619.66;5076927;28;20285;-66
2022/01/22 05:04:53;;;;;;;22.50;11.93;;;;;;;3.18;100.00;99620.50;5075148;28;20219;-66
2022/01/22 05:07:19;;;;;;;16.30;10.90;;;;;;;3.20;100.00;99623.09;5065095;28;20223;-66
2022/01/22 05:09:46;;;;;;;15.27;10.07;;;;;;;3.23;100.00;99613.44;5076467;28;20211;-66
2022/01/22 05:12:13;;;;;;;18.23;10.50;;;;;;;3.25;100.00;99619.50;5076633;28;20223;-66
2022/01/22 05:14:39;;;;;;;16.90;11.30;;;;;;;3.25;100.00;99619.50;5073906;28;20219;-66
2022/01/22 05:17:07;;;;;;;21.60;11.47;;;;;;;3.29;100.00;99621.19;5076543;28;20223;-66
2022/01/22 05:19:44;;;;;;;17.50;10.37;;;;;;;3.28;100.00;99624.69;5076606;28;20665;-66
2022/01/22 05:22:20;;;;;;;14.70;10.40;;;;;;;3.32;100.00;99631.59;5076512;28;20584;-66
2022/01/22 05:24:52;;;;;;;16.60;10.30;;;;;;;3.27;100.00;99633.41;5076348;28;20318;-66
2022/01/22 05:30:09;;;;;;;17.77;11.47;;;;;;;3.30;100.00;99638.59;5072280;28;20211;-67
2022/01/22 05:32:53;;;;;;;18.33;11.23;;;;;;;3.26;100.00;99636.94;5076334;28;20562;-67
2022/01/22 05:38:07;;;;;;;17.40;10.70;;;;;;;3.12;100.00;99641.50;5076049;28;20700;-67
2022/01/22 05:40:33;;;;;;;16.83;11.17;;;;;;;3.12;100.00;99636.25;5074467;28;20275;-67
2022/01/22 05:43:00;;;;;;;18.20;11.70;;;;;;;3.11;100.00;99639.78;5076236;28;20215;-67
2022/01/22 05:45:27;;;;;;;18.37;11.30;;;;;;;3.06;100.00;99644.19;5076093;28;20207;-67
2022/01/22 05:47:53;;;;;;;16.93;11.20;;;;;;;3.08;100.00;99645.06;5076004;28;20211;-67
2022/01/22 05:50:29;;;;;;;17.80;10.30;;;;;;;3.16;100.00;99645.78;5075878;28;20208;-67
2022/01/22 05:52:59;;;;;;;17.13;10.97;;;;;;;3.15;100.00;99646.69;5075864;28;20580;-67
2022/01/22 06:00:52;;;;;;;16.60;10.23;;;;;;;3.16;100.00;99639.69;5075515;28;20732;-67
2022/01/22 06:03:19;;;;;;;15.73;11.27;;;;;;;3.18;100.00;99644.00;5075838;28;20223;-67
2022/01/22 06:05:45;;;;;;;15.97;10.50;;;;;;;3.22;100.00;99648.31;5074610;28;20318;-67
2022/01/22 06:08:15;;;;;;;16.20;10.73;;;;;;;3.20;100.00;99655.31;5075642;28;20207;-67
2022/01/22 06:10:45;;;;;;;16.53;10.63;;;;;;;3.27;100.00;99651.72;5075608;28;20655;-67
2022/01/22 06:13:14;;;;;;;17.17;11.30;;;;;;;3.22;100.00;99661.38;5075713;28;20207;-67
2022/01/22 06:15:41;;;;;;;14.73;10.43;;;;;;;3.17;100.00;99660.56;5075418;28;20215;-67
2022/01/22 06:18:07;;;;;;;17.37;10.87;;;;;;;3.21;100.00;99653.53;5075526;28;20222;-67
2022/01/22 06:20:34;;;;;;;16.10;10.10;;;;;;;3.20;100.00;99662.28;5075401;28;20242;-67
2022/01/22 06:23:02;;;;;;;15.33;10.00;;;;;;;3.24;100.00;99659.59;5073791;28;20215;-67
2022/01/22 06:25:29;;;;;;;17.73;11.20;;;;;;;3.24;100.00;99656.13;5072588;28;20247;-66
2022/01/22 06:27:57;;;;;;;14.83;9.93;;;;;;;3.26;100.00;99657.84;5063194;28;20219;-67
2022/01/22 06:30:24;;;;;;;16.17;9.97;;;;;;;3.24;100.00;99659.59;5075299;28;20223;-67
2022/01/22 06:32:51;;;;;;;17.10;10.47;;;;;;;3.22;100.00;99656.13;5074889;28;20219;-67
2022/01/22 06:35:17;;;;;;;16.87;10.33;;;;;;;3.26;100.00;99657.84;5072189;28;20681;-67
2022/01/22 06:37:44;;;;;;;16.13;10.57;;;;;;;3.22;100.00;99669.19;5075042;28;20235;-66
2022/01/22 06:42:55;;;;;;;13.40;9.90;;;;;;;3.20;100.00;99662.28;5074723;28;20214;-66
2022/01/22 06:45:23;;;;;;;17.83;10.53;;;;;;;3.15;100.00;99664.09;5074599;28;20211;-67
2022/01/22 06:47:49;;;;;;;15.40;10.13;;;;;;;3.16;100.00;99666.69;5074733;28;20212;-67
2022/01/22 06:50:18;;;;;;;16.03;10.90;;;;;;;3.22;100.00;99671.81;5072878;28;20696;-67
2022/01/22 06:52:44;;;;;;;15.57;9.97;;;;;;;3.24;100.00;99670.03;5074780;28;20207;-67
2022/01/22 06:55:14;;;;;;;15.70;9.83;;;;;;;3.20;100.00;99668.38;5074832;28;20223;-67
2022/01/22 06:57:41;;;;;;;20.17;11.47;;;;;;;3.17;100.00;99671.03;5074697;28;20220;-67
2022/01/22 07:00:08;;;;;;;13.77;9.43;;;;;;;3.27;100.00;99675.22;5074383;28;20228;-67
2022/01/22 07:02:36;;;;;;;16.13;10.33;;;;;;;3.25;100.00;99687.44;5074496;28;20610;-67
2022/01/22 07:05:03;;;;;;;14.93;10.00;;;;;;;3.24;100.00;99690.09;5074523;28;20220;-67
2022/01/22 07:07:29;;;;;;;15.93;10.27;;;;;;;3.25;100.00;99676.13;5074581;28;20207;-68
2022/01/22 07:09:55;;;;;;;16.30;9.83;;;;;;;3.25;100.00;99676.97;5074486;28;20219;-67
2022/01/22 07:12:22;;;;;;;15.83;9.40;;;;;;;3.21;100.00;99677.94;5074295;28;20286;-67
2022/01/22 07:14:49;;;;;;;16.77;10.03;;;;;;;3.26;100.00;99678.72;5072392;28;20305;-67
2022/01/22 07:17:16;;;;;;;16.97;8.93;;;;;;;3.34;100.00;99671.63;5074272;28;20246;-67
2022/01/22 07:19:44;;;;;;;12.17;8.70;;;;;;;3.32;100.00;99672.53;5074345;28;20215;-67
2022/01/22 07:22:31;;;;;;;14.37;9.90;;;;;;;3.31;100.00;99676.03;5074060;28;20258;-67
2022/01/22 07:24:57;;;;;;;13.57;8.87;;;;;;;3.31;100.00;99682.09;5061713;28;20320;-67
2022/01/22 07:27:24;;;;;;;15.30;9.27;;;;;;;3.30;100.00;99669.94;5073783;28;20679;-67
2022/01/22 07:29:50;;;;;;;13.63;9.27;;;;;;;3.27;100.00;99680.44;5074150;28;20673;-67
2022/01/22 07:32:26;;;;;;;12.40;8.83;;;;;;;3.35;100.00;99672.47;5073681;28;20680;-67
2022/01/22 07:34:54;;;;;;;14.57;9.30;;;;;;;3.26;100.00;99680.47;5062681;28;20265;-67
2022/01/22 07:37:21;;;;;;;16.20;9.17;;;;;;;3.26;100.00;99673.50;5073611;28;20669;-67
2022/01/22 07:39:47;;;;;;;14.03;9.00;;;;;;;3.19;100.00;99687.53;5073726;28;20214;-67
2022/01/22 07:42:14;;;;;;;15.33;9.17;;;;;;;3.22;100.00;99695.34;5072096;28;20236;-67
2022/01/22 07:44:40;;;;;;;12.57;8.47;;;;;;;3.28;100.00;99681.28;5073732;28;20221;-66
2022/01/22 07:47:06;;;;;;;13.47;8.63;;;;;;;3.29;100.00;99686.50;5073790;28;20208;-67
2022/01/22 07:49:33;;;;;;;13.63;8.73;;;;;;;3.30;100.00;99701.28;5073373;28;20681;-66
2022/01/22 07:52:01;;;;;;;13.80;8.87;;;;;;;3.38;100.00;99714.25;5073347;28;20661;-67
2022/01/22 07:54:27;;;;;;;12.30;8.77;;;;;;;3.42;100.00;99708.94;5061241;28;20208;-67
2022/01/22 07:56:54;;;;;;;12.63;8.97;;;;;;;3.37;100.00;99699.47;5073090;28;20625;-67
2022/01/22 07:59:20;;;;;;;14.33;9.80;;;;;;;3.36;100.00;99695.97;5073475;28;20239;-67
2022/01/22 08:01:47;;;;;;;14.80;9.77;;;;;;;3.38;100.00;99694.22;5073350;28;20240;-66
2022/01/22 08:04:13;;;;;;;12.93;8.93;;;;;;;3.26;100.00;99698.75;5071133;28;20218;-67
2022/01/22 08:06:40;;;;;;;14.10;9.63;;;;;;;3.26;100.00;99699.63;5071211;28;20220;-67
2022/01/22 08:09:08;;;;;;;13.67;9.33;;;;;;;3.30;100.00;99696.06;5071175;28;20215;-67
2022/01/22 08:11:34;;;;;;;17.33;10.10;;;;;;;3.27;100.00;99683.06;5071790;28;20203;-67
2022/01/22 08:14:00;;;;;;;13.00;9.83;;;;;;;3.26;100.00;99689.19;5069571;28;20215;-66
2022/01/22 08:16:27;;;;;;;14.57;9.67;;;;;;;3.27;100.00;99690.91;5062814;28;20219;-67
2022/01/22 08:18:53;;;;;;;15.07;9.80;;;;;;;3.27;100.00;99701.34;5071814;28;20220;-67
2022/01/22 08:21:20;;;;;;;15.10;10.40;;;;;;;3.24;100.00;99695.31;5069273;28;20239;-67
2022/01/22 08:23:46;;;;;;;14.33;9.77;;;;;;;3.36;100.00;99702.97;5059020;28;20215;-67
2022/01/22 08:26:18;;;;;;;13.20;9.40;;;;;;;3.35;100.00;99702.09;5072021;28;20246;-67
2022/01/22 08:28:58;;;;;;;12.30;8.57;;;;;;;3.41;100.00;99704.59;5071582;28;20226;-67
2022/01/22 08:31:39;;;;;;;12.83;8.87;;;;;;;3.44;100.00;99709.81;5071588;28;20226;-67
2022/01/22 08:36:51;;;;;;;14.57;8.63;;;;;;;3.50;100.00;99712.31;5071642;28;20222;-67
2022/01/22 08:39:19;;;;;;;14.80;8.83;;;;;;;3.52;100.00;99718.38;5071396;28;20748;-67
2022/01/22 08:41:47;;;;;;;12.63;8.30;;;;;;;3.57;100.00;99721.78;5071315;28;20246;-67
2022/01/22 08:44:14;;;;;;;13.33;8.40;;;;;;;3.61;100.00;99728.66;5071297;28;20218;-67
2022/01/22 08:46:41;;;;;;;12.17;8.50;;;;;;;3.67;100.00;99723.34;5071568;28;20216;-67
2022/01/22 08:49:09;;;;;;;15.97;9.17;;;;;;;3.65;100.00;99730.34;5071565;28;20595;-67
2022/01/22 08:51:38;;;;;;;14.23;8.60;;;;;;;3.68;100.00;99734.66;5071613;28;20213;-67
2022/01/22 08:54:04;;;;;;;12.77;8.50;;;;;;;3.66;100.00;99742.53;5071245;28;20724;-67
2022/01/22 08:56:31;;;;;;;13.13;8.27;;;;;;;3.67;100.00;99733.78;5070816;28;20216;-67
2022/01/22 08:58:59;;;;;;;12.37;8.50;;;;;;;3.63;100.00;99739.97;5070904;28;20584;-67
2022/01/22 09:01:26;;;;;;;13.40;8.27;;;;;;;3.61;100.00;99741.72;5068756;28;20234;-67
2022/01/22 09:03:52;;;;;;;11.80;8.30;;;;;;;3.60;100.00;99742.63;5070746;28;20216;-67
2022/01/22 09:06:20;;;;;;;13.90;9.40;;;;;;;3.66;100.00;99742.53;5070762;28;20216;-67
2022/01/22 09:08:50;;;;;;;12.73;9.20;;;;;;;3.70;100.00;99740.72;5071008;28;20406;-67
2022/01/22 09:11:16;;;;;;;12.13;7.90;;;;;;;3.77;100.00;99735.38;5070631;28;20215;-67
2022/01/22 09:13:43;;;;;;;12.40;8.07;;;;;;;3.70;100.00;99733.75;5071000;28;20223;-67
2022/01/22 09:16:11;;;;;;;14.53;9.23;;;;;;;3.71;100.00;99732.88;5070752;28;20211;-67
2022/01/22 09:18:37;;;;;;;12.63;8.03;;;;;;;3.80;100.00;99735.31;5070751;28;20217;-67
2022/01/22 09:21:06;;;;;;;13.53;8.53;;;;;;;3.76;100.00;99749.34;5071405;28;20215;-67
2022/01/22 09:23:33;;;;;;;12.10;8.30;;;;;;;3.87;100.00;99755.28;5071382;28;20216;-67
2022/01/22 09:26:01;;;;;;;13.77;8.47;;;;;;;3.83;100.00;99750.97;5070950;28;20261;-67
2022/01/22 09:28:30;;;;;;;12.83;8.17;;;;;;;3.92;100.00;99750.78;5069788;28;20219;-67
2022/01/22 09:30:56;;;;;;;13.03;8.97;;;;;;;3.84;100.00;99752.69;5071298;28;20211;-67
2022/01/22 09:33:24;;;;;;;12.70;8.30;;;;;;;3.88;100.00;99753.50;5071206;28;20231;-66
2022/01/22 09:35:51;;;;;;;13.33;8.93;;;;;;;3.86;100.00;99750.91;5060980;28;20330;-66
2022/01/22 09:38:17;;;;;;;13.33;8.20;;;;;;;4.01;100.00;99745.41;5066625;28;20234;-66
2022/01/22 09:40:44;;;;;;;11.53;8.07;;;;;;;4.09;100.00;99758.38;5071662;28;20241;-66
2022/01/22 09:43:12;;;;;;;10.43;8.10;;;;;;;4.14;100.00;99757.38;5073114;28;20235;-66
2022/01/22 09:45:39;;;;;;;13.30;8.87;;;;;;;4.15;100.00;99764.34;5061374;28;20220;-67
2022/01/22 09:48:06;;;;;;;11.93;7.80;;;;;;;4.12;100.00;99763.53;5072585;28;20220;-67
2022/01/22 09:50:36;;;;;;;13.73;8.50;;;;;;;4.10;100.00;99770.56;5073065;28;20267;-67
2022/01/22 09:53:03;;;;;;;12.23;8.83;;;;;;;4.10;100.00;99770.56;5074201;28;20232;-68
2022/01/22 09:55:30;;;;;;;12.87;8.90;;;;;;;4.09;100.00;99774.91;5072081;28;20593;-67
2022/01/22 09:57:58;;;;;;;12.87;8.90;;;;;;;4.12;100.00;99769.66;5069954;28;20216;-67
2022/01/22 10:00:25;;;;;;;13.63;8.20;;;;;;;4.06;100.00;99766.25;5073861;28;20687;-67
2022/01/22 10:02:54;;;;;;;10.40;7.63;;;;;;;4.07;100.00;99776.72;5073690;28;20510;-67
2022/01/22 10:05:32;;;;;;;16.00;8.37;;;;;;;4.06;100.00;99784.56;5072530;28;20222;-66
2022/01/22 10:08:28;;;;;;;13.67;7.50;;;;;;;4.02;100.00;99786.38;5072630;28;20223;-68
2022/01/22 10:10:56;;;;;;;12.00;8.07;;;;;;;4.11;100.00;99788.84;5073503;28;20302;-67
2022/01/22 10:13:44;;;;;;;11.70;8.07;;;;;;;4.05;100.00;99783.72;5072929;28;20207;-68
2022/01/22 10:16:24;;;;;;;10.90;7.90;;;;;;;4.10;100.00;99781.88;5061202;28;20216;-68
2022/01/22 10:19:10;;;;;;;15.53;8.27;;;;;;;4.09;100.00;99782.75;5073400;28;20223;-68
2022/01/22 10:21:37;;;;;;;9.40;6.93;;;;;;;4.13;100.00;99779.22;5068491;28;20239;-68
2022/01/22 10:24:25;;;;;;;10.83;7.93;;;;;;;4.13;100.00;99781.84;5073079;28;20241;-68
2022/01/22 10:27:11;;;;;;;9.53;7.13;;;;;;;4.19;100.00;99776.50;5072464;28;20711;-68
2022/01/22 10:29:37;;;;;;;10.83;8.10;;;;;;;4.14;100.00;99778.31;5072723;28;20230;-68
2022/01/22 10:32:05;;;;;;;12.30;8.67;;;;;;;4.13;100.00;99773.09;5070571;28;20207;-68
2022/01/22 10:34:31;;;;;;;10.47;7.97;;;;;;;4.18;100.00;99773.91;5072634;28;20211;-68
2022/01/22 10:36:58;;;;;;;10.63;7.73;;;;;;;4.20;100.00;99770.38;5073068;28;20218;-68
2022/01/22 10:39:27;;;;;;;12.13;8.57;;;;;;;4.20;100.00;99762.50;5072272;28;20223;-68
2022/01/22 10:41:54;;;;;;;15.97;9.63;;;;;;;4.22;100.00;99755.47;5062033;28;20262;-68
2022/01/22 10:44:40;;;;;;;13.70;8.10;;;;;;;4.30;100.00;99758.84;5065415;28;20224;-68
2022/01/22 10:47:18;;;;;;;12.50;8.73;;;;;;;4.36;100.00;99761.34;5071017;28;20218;-68
2022/01/22 10:49:45;;;;;;;14.20;8.73;;;;;;;4.38;100.00;99756.06;5072828;28;20684;-68
2022/01/22 10:52:11;;;;;;;13.10;8.20;;;;;;;4.40;100.00;99757.75;5071934;28;20578;-68
2022/01/22 10:54:39;;;;;;;13.77;8.50;;;;;;;4.35;100.00;99756.97;5071743;28;20219;-68
2022/01/22 10:57:12;;;;;;;12.10;8.50;;;;;;;4.37;100.00;99744.75;5072455;28;20212;-68
2022/01/22 10:59:46;;;;;;;13.13;8.63;;;;;;;4.33;100.00;99745.69;5072426;28;20213;-68
2022/01/22 11:02:14;;;;;;;12.27;8.80;;;;;;;4.33;100.00;99737.00;5069378;28;20235;-68
2022/01/22 11:04:42;;;;;;;10.63;8.10;;;;;;;4.29;100.00;99736.16;5072748;28;20259;-68
2022/01/22 11:07:11;;;;;;;13.40;9.10;;;;;;;4.24;100.00;99732.78;5073205;28;20212;-68
2022/01/22 11:09:38;;;;;;;12.97;8.73;;;;;;;4.23;100.00;99731.03;5073134;28;20216;-68
2022/01/22 11:12:06;;;;;;;11.93;7.87;;;;;;;4.33;100.00;99740.44;5073182;28;20217;-68
2022/01/22 11:14:36;;;;;;;11.73;7.80;;;;;;;4.36;100.00;99742.16;5071523;28;20282;-68
2022/01/22 11:17:03;;;;;;;12.60;8.40;;;;;;;4.35;100.00;99750.91;5066652;28;20365;-68
2022/01/22 11:19:33;;;;;;;11.00;8.00;;;;;;;4.33;100.00;99747.47;5072762;28;20215;-68
2022/01/22 11:22:04;;;;;;;10.20;7.20;;;;;;;4.28;100.00;99750.13;5072925;28;20600;-68
2022/01/22 11:24:35;;;;;;;11.17;7.43;;;;;;;4.14;100.00;99751.28;5072560;28;20738;-68
2022/01/22 11:27:04;;;;;;;11.60;7.43;;;;;;;4.20;100.00;99752.03;5072926;28;20208;-68
2022/01/22 11:29:37;;;;;;;12.17;7.40;;;;;;;4.25;100.00;99742.38;5072848;28;20234;-68
2022/01/22 11:32:08;;;;;;;13.03;8.03;;;;;;;4.41;100.00;99741.16;5067086;28;20245;-68
2022/01/22 11:34:37;;;;;;;11.30;8.17;;;;;;;4.51;100.00;99750.56;5072624;28;20226;-69
2022/01/22 11:37:10;;;;;;;13.93;7.47;;;;;;;4.68;100.00;99750.22;5072701;28;20612;-68
2022/01/22 11:39:37;;;;;;;10.50;7.07;;;;;;;4.72;100.00;99751.91;5072285;28;20217;-69
2022/01/22 11:42:05;;;;;;;12.67;7.37;;;;;;;4.70;100.00;99743.22;5070806;28;20246;-68
2022/01/22 11:44:39;;;;;;;11.47;7.07;;;;;;;4.78;100.00;99743.91;5072307;28;20212;-68
2022/01/22 11:47:12;;;;;;;13.77;7.43;;;;;;;4.87;100.00;99741.97;5072422;28;20247;-68
2022/01/22 11:49:39;;;;;;;10.73;6.93;;;;;;;4.89;100.00;99740.16;5065743;28;20208;-68
2022/01/22 11:52:22;;;;;;;11.87;7.33;;;;;;;4.87;100.00;99741.09;5072428;28;20230;-68
2022/01/22 11:54:51;;;;;;;12.77;8.37;;;;;;;4.92;100.00;99739.25;5072029;28;20218;-69
2022/01/22 11:57:20;;;;;;;11.23;7.30;;;;;;;4.84;100.00;99744.63;5072339;28;20263;-68
2022/01/22 11:59:47;;;;;;;11.73;7.97;;;;;;;4.84;100.00;99731.53;5072287;28;20219;-68
2022/01/22 12:02:14;;;;;;;10.77;6.93;;;;;;;4.84;100.00;99721.06;5072159;28;20237;-69
2022/01/22 12:04:49;;;;;;;11.43;7.37;;;;;;;4.89;100.00;99721.84;5071381;28;20212;-69
2022/01/22 12:07:21;;;;;;;12.77;7.50;;;;;;;4.94;100.00;99725.22;5069364;28;20223;-67
2022/01/22 12:16:15;;;;;;;12.37;7.87;;;;;;;5.18;100.00;99732.53;5065157;28;20259;-68
2022/01/22 12:18:49;;;;;;;13.10;7.97;;;;;;;5.23;100.00;99732.44;5059980;28;20214;-68
2022/01/22 12:21:33;;;;;;;12.17;7.40;;;;;;;5.21;100.00;99727.25;5071181;28;20248;-68
2022/01/22 12:24:01;;;;;;;8.23;6.53;;;;;;;5.24;100.00;99732.41;5063362;28;20236;-68
2022/01/22 12:26:46;;;;;;;11.37;7.20;;;;;;;5.21;100.00;99727.25;5071090;28;20219;-68
2022/01/22 12:29:37;;;;;;;9.17;7.10;;;;;;;5.30;100.00;99739.25;5065582;28;20222;-67
2022/01/22 12:32:17;;;;;;;13.10;7.60;;;;;;;5.27;100.00;99734.97;5065462;28;20224;-67
2022/01/22 12:35:05;;;;;;;10.00;7.57;;;;;;;5.17;100.00;99733.44;5064587;28;20209;-68
2022/01/22 12:37:36;;;;;;;10.37;7.63;;;;;;;5.15;100.00;99743.13;5069874;28;20216;-68